sensor_id;sensor_type;location;lat;lon;timestamp;P1;durP1;ratioP1;P2;durP2;ratioP2
49488;SDS011;35382;51.484;11.476;2023-08-20T00:00:01;8.20;;;5.57;;
49488;SDS011;35382;51.484;11.476;2023-08-20T00:02:27;8.13;;;5.70;;
49488;SDS011;35382;51.484;11.476;2023-08-20T00:04:56;7.53;;;5.55;;
49488;SDS011;35382;51.484;11.476;2023-08-20T00:07:22;8.35;;;6.13;;
49488;SDS011;35382;51.484;11.476;2023-08-20T00:09:48;8.90;;;5.67;;
49488;SDS011;35382;51.484;11.476;2023-08-20T00:12:13;8.80;;;5.53;;
49488;SDS011;35382;51.484;11.476;2023-08-20T00:14:55;11.17;;;5.60;;
49488;SDS011;35382;51.484;11.476;2023-08-20T00:17:22;7.72;;;5.95;;
49488;SDS011;35382;51.484;11.476;2023-08-20T00:19:48;7.97;;;6.53;;
49488;SDS011;35382;51.484;11.476;2023-08-20T00:22:14;8.73;;;6.05;;
49488;SDS011;35382;51.484;11.476;2023-08-20T00:27:06;8.13;;;6.13;;
49488;SDS011;35382;51.484;11.476;2023-08-20T00:29:31;9.33;;;6.43;;
49488;SDS011;35382;51.484;11.476;2023-08-20T00:31:57;10.00;;;6.97;;
49488;SDS011;35382;51.484;11.476;2023-08-20T00:34:22;10.03;;;6.63;;
49488;SDS011;35382;51.484;11.476;2023-08-20T00:36:48;9.83;;;6.60;;
49488;SDS011;35382;51.484;11.476;2023-08-20T00:39:13;10.37;;;7.73;;
49488;SDS011;35382;51.484;11.476;2023-08-20T00:41:39;10.50;;;8.40;;
49488;SDS011;35382;51.484;11.476;2023-08-20T00:44:04;10.37;;;7.67;;
49488;SDS011;35382;51.484;11.476;2023-08-20T00:46:30;12.80;;;9.17;;
49488;SDS011;35382;51.484;11.476;2023-08-20T00:48:56;10.80;;;8.23;;
49488;SDS011;35382;51.484;11.476;2023-08-20T00:51:21;11.03;;;8.27;;
49488;SDS011;35382;51.484;11.476;2023-08-20T00:53:47;11.65;;;8.35;;
49488;SDS011;35382;51.484;11.476;2023-08-20T00:56:13;10.87;;;8.70;;
49488;SDS011;35382;51.484;11.476;2023-08-20T00:58:39;11.73;;;9.27;;
49488;SDS011;35382;51.484;11.476;2023-08-20T01:01:05;12.20;;;9.03;;
49488;SDS011;35382;51.484;11.476;2023-08-20T01:03:30;12.03;;;8.53;;
49488;SDS011;35382;51.484;11.476;2023-08-20T01:06:00;13.77;;;9.47;;
49488;SDS011;35382;51.484;11.476;2023-08-20T01:08:37;14.55;;;9.65;;
49488;SDS011;35382;51.484;11.476;2023-08-20T01:11:20;12.05;;;9.27;;
49488;SDS011;35382;51.484;11.476;2023-08-20T01:13:50;11.82;;;8.48;;
49488;SDS011;35382;51.484;11.476;2023-08-20T01:16:15;12.67;;;8.77;;
49488;SDS011;35382;51.484;11.476;2023-08-20T01:18:41;11.27;;;8.70;;
49488;SDS011;35382;51.484;11.476;2023-08-20T01:21:17;12.60;;;9.13;;
49488;SDS011;35382;51.484;11.476;2023-08-20T01:24:28;11.60;;;9.63;;
49488;SDS011;35382;51.484;11.476;2023-08-20T01:29:43;11.63;;;9.15;;
49488;SDS011;35382;51.484;11.476;2023-08-20T01:32:08;13.53;;;10.80;;
49488;SDS011;35382;51.484;11.476;2023-08-20T01:34:36;12.05;;;10.13;;
49488;SDS011;35382;51.484;11.476;2023-08-20T01:37:01;13.87;;;10.40;;
49488;SDS011;35382;51.484;11.476;2023-08-20T01:39:27;13.37;;;9.87;;
49488;SDS011;35382;51.484;11.476;2023-08-20T01:41:52;15.67;;;10.83;;
49488;SDS011;35382;51.484;11.476;2023-08-20T01:44:17;13.30;;;10.83;;
49488;SDS011;35382;51.484;11.476;2023-08-20T01:46:43;12.73;;;11.23;;
49488;SDS011;35382;51.484;11.476;2023-08-20T01:49:08;13.83;;;11.63;;
49488;SDS011;35382;51.484;11.476;2023-08-20T01:51:34;14.97;;;12.33;;
49488;SDS011;35382;51.484;11.476;2023-08-20T01:53:59;14.53;;;11.30;;
49488;SDS011;35382;51.484;11.476;2023-08-20T01:56:25;17.03;;;12.97;;
49488;SDS011;35382;51.484;11.476;2023-08-20T01:58:50;18.77;;;14.63;;
49488;SDS011;35382;51.484;11.476;2023-08-20T02:01:16;18.37;;;13.77;;
49488;SDS011;35382;51.484;11.476;2023-08-20T02:03:41;18.13;;;15.67;;
49488;SDS011;35382;51.484;11.476;2023-08-20T02:06:07;19.07;;;15.80;;
49488;SDS011;35382;51.484;11.476;2023-08-20T02:08:32;22.13;;;16.87;;
49488;SDS011;35382;51.484;11.476;2023-08-20T02:11:00;21.00;;;16.83;;
49488;SDS011;35382;51.484;11.476;2023-08-20T02:13:26;21.23;;;18.20;;
49488;SDS011;35382;51.484;11.476;2023-08-20T02:15:58;25.20;;;18.57;;
49488;SDS011;35382;51.484;11.476;2023-08-20T02:18:26;25.55;;;21.08;;
49488;SDS011;35382;51.484;11.476;2023-08-20T02:20:53;23.80;;;20.63;;
49488;SDS011;35382;51.484;11.476;2023-08-20T02:23:21;27.17;;;22.15;;
49488;SDS011;35382;51.484;11.476;2023-08-20T02:25:50;30.33;;;22.95;;
49488;SDS011;35382;51.484;11.476;2023-08-20T02:28:15;32.17;;;24.03;;
49488;SDS011;35382;51.484;11.476;2023-08-20T02:30:41;31.17;;;23.77;;
49488;SDS011;35382;51.484;11.476;2023-08-20T02:33:07;29.92;;;23.48;;
49488;SDS011;35382;51.484;11.476;2023-08-20T02:35:33;31.73;;;22.70;;
49488;SDS011;35382;51.484;11.476;2023-08-20T02:37:58;26.87;;;21.47;;
49488;SDS011;35382;51.484;11.476;2023-08-20T02:40:23;24.33;;;20.40;;
49488;SDS011;35382;51.484;11.476;2023-08-20T02:42:49;25.33;;;19.97;;
49488;SDS011;35382;51.484;11.476;2023-08-20T02:45:14;27.40;;;21.83;;
49488;SDS011;35382;51.484;11.476;2023-08-20T02:47:40;25.07;;;21.03;;
49488;SDS011;35382;51.484;11.476;2023-08-20T02:50:05;28.47;;;20.53;;
49488;SDS011;35382;51.484;11.476;2023-08-20T02:52:31;23.27;;;19.33;;
49488;SDS011;35382;51.484;11.476;2023-08-20T02:54:57;25.03;;;18.97;;
49488;SDS011;35382;51.484;11.476;2023-08-20T02:57:22;20.67;;;17.23;;
49488;SDS011;35382;51.484;11.476;2023-08-20T02:59:48;20.30;;;17.47;;
49488;SDS011;35382;51.484;11.476;2023-08-20T03:02:13;20.00;;;16.87;;
49488;SDS011;35382;51.484;11.476;2023-08-20T03:04:38;19.63;;;17.27;;
49488;SDS011;35382;51.484;11.476;2023-08-20T03:07:04;20.17;;;16.43;;
49488;SDS011;35382;51.484;11.476;2023-08-20T03:09:29;19.93;;;15.73;;
49488;SDS011;35382;51.484;11.476;2023-08-20T03:11:55;18.00;;;14.87;;
49488;SDS011;35382;51.484;11.476;2023-08-20T03:14:20;19.93;;;14.80;;
49488;SDS011;35382;51.484;11.476;2023-08-20T03:16:46;17.53;;;13.73;;
49488;SDS011;35382;51.484;11.476;2023-08-20T03:19:14;14.03;;;12.07;;
49488;SDS011;35382;51.484;11.476;2023-08-20T03:21:40;16.58;;;12.05;;
49488;SDS011;35382;51.484;11.476;2023-08-20T03:24:06;17.07;;;11.80;;
49488;SDS011;35382;51.484;11.476;2023-08-20T03:26:32;14.52;;;11.50;;
49488;SDS011;35382;51.484;11.476;2023-08-20T03:28:57;12.03;;;10.07;;
49488;SDS011;35382;51.484;11.476;2023-08-20T03:31:23;15.13;;;10.73;;
49488;SDS011;35382;51.484;11.476;2023-08-20T03:33:49;12.63;;;10.97;;
49488;SDS011;35382;51.484;11.476;2023-08-20T03:36:14;14.70;;;11.10;;
49488;SDS011;35382;51.484;11.476;2023-08-20T03:38:41;14.85;;;11.13;;
49488;SDS011;35382;51.484;11.476;2023-08-20T03:41:06;13.87;;;11.57;;
49488;SDS011;35382;51.484;11.476;2023-08-20T03:43:32;17.27;;;12.80;;
49488;SDS011;35382;51.484;11.476;2023-08-20T03:45:57;18.40;;;13.07;;
49488;SDS011;35382;51.484;11.476;2023-08-20T03:48:23;18.05;;;13.77;;
49488;SDS011;35382;51.484;11.476;2023-08-20T03:50:49;17.73;;;13.43;;
49488;SDS011;35382;51.484;11.476;2023-08-20T03:53:15;17.08;;;13.73;;
49488;SDS011;35382;51.484;11.476;2023-08-20T03:55:41;18.80;;;15.35;;
49488;SDS011;35382;51.484;11.476;2023-08-20T03:58:08;19.80;;;16.00;;
49488;SDS011;35382;51.484;11.476;2023-08-20T04:00:34;22.60;;;17.97;;
49488;SDS011;35382;51.484;11.476;2023-08-20T04:03:01;24.45;;;20.00;;
49488;SDS011;35382;51.484;11.476;2023-08-20T04:05:27;25.10;;;20.50;;
49488;SDS011;35382;51.484;11.476;2023-08-20T04:07:52;23.80;;;20.80;;
49488;SDS011;35382;51.484;11.476;2023-08-20T04:10:19;24.15;;;20.52;;
49488;SDS011;35382;51.484;11.476;2023-08-20T04:12:45;26.43;;;22.17;;
49488;SDS011;35382;51.484;11.476;2023-08-20T04:15:10;27.40;;;23.23;;
49488;SDS011;35382;51.484;11.476;2023-08-20T04:17:36;30.63;;;24.47;;
49488;SDS011;35382;51.484;11.476;2023-08-20T04:20:01;30.63;;;24.23;;
49488;SDS011;35382;51.484;11.476;2023-08-20T04:22:27;30.60;;;25.47;;
49488;SDS011;35382;51.484;11.476;2023-08-20T04:24:52;32.83;;;26.93;;
49488;SDS011;35382;51.484;11.476;2023-08-20T04:27:17;32.00;;;25.33;;
49488;SDS011;35382;51.484;11.476;2023-08-20T04:29:44;29.33;;;24.95;;
49488;SDS011;35382;51.484;11.476;2023-08-20T04:32:09;31.03;;;24.37;;
49488;SDS011;35382;51.484;11.476;2023-08-20T04:34:34;30.43;;;24.33;;
49488;SDS011;35382;51.484;11.476;2023-08-20T04:37:00;29.87;;;23.17;;
49488;SDS011;35382;51.484;11.476;2023-08-20T04:39:25;29.40;;;23.27;;
49488;SDS011;35382;51.484;11.476;2023-08-20T04:41:52;31.70;;;24.35;;
49488;SDS011;35382;51.484;11.476;2023-08-20T04:44:20;25.63;;;21.92;;
49488;SDS011;35382;51.484;11.476;2023-08-20T04:46:46;29.13;;;24.52;;
49488;SDS011;35382;51.484;11.476;2023-08-20T04:49:12;29.83;;;22.83;;
49488;SDS011;35382;51.484;11.476;2023-08-20T04:51:38;29.63;;;23.37;;
49488;SDS011;35382;51.484;11.476;2023-08-20T04:54:03;32.57;;;23.87;;
49488;SDS011;35382;51.484;11.476;2023-08-20T04:56:29;25.60;;;22.10;;
49488;SDS011;35382;51.484;11.476;2023-08-20T04:58:55;27.73;;;21.90;;
49488;SDS011;35382;51.484;11.476;2023-08-20T05:01:41;25.98;;;22.17;;
49488;SDS011;35382;51.484;11.476;2023-08-20T05:04:08;29.40;;;22.67;;
49488;SDS011;35382;51.484;11.476;2023-08-20T05:06:33;25.83;;;21.23;;
49488;SDS011;35382;51.484;11.476;2023-08-20T05:08:59;27.60;;;21.33;;
49488;SDS011;35382;51.484;11.476;2023-08-20T05:11:25;25.13;;;21.07;;
49488;SDS011;35382;51.484;11.476;2023-08-20T05:13:51;25.23;;;19.55;;
49488;SDS011;35382;51.484;11.476;2023-08-20T05:16:17;26.42;;;21.15;;
49488;SDS011;35382;51.484;11.476;2023-08-20T05:18:44;27.42;;;21.13;;
49488;SDS011;35382;51.484;11.476;2023-08-20T05:21:28;23.98;;;19.52;;
49488;SDS011;35382;51.484;11.476;2023-08-20T05:24:04;23.08;;;19.48;;
49488;SDS011;35382;51.484;11.476;2023-08-20T05:26:30;23.42;;;20.80;;
49488;SDS011;35382;51.484;11.476;2023-08-20T05:28:55;25.03;;;20.40;;
49488;SDS011;35382;51.484;11.476;2023-08-20T05:31:21;26.00;;;20.33;;
49488;SDS011;35382;51.484;11.476;2023-08-20T05:33:46;27.67;;;21.77;;
49488;SDS011;35382;51.484;11.476;2023-08-20T05:36:12;26.57;;;20.67;;
49488;SDS011;35382;51.484;11.476;2023-08-20T05:38:38;27.00;;;21.20;;
49488;SDS011;35382;51.484;11.476;2023-08-20T05:41:03;25.20;;;20.53;;
49488;SDS011;35382;51.484;11.476;2023-08-20T05:43:29;27.13;;;20.80;;
49488;SDS011;35382;51.484;11.476;2023-08-20T05:45:55;24.70;;;20.07;;
49488;SDS011;35382;51.484;11.476;2023-08-20T05:48:22;25.17;;;20.25;;
49488;SDS011;35382;51.484;11.476;2023-08-20T05:50:47;26.10;;;19.93;;
49488;SDS011;35382;51.484;11.476;2023-08-20T05:55:39;22.40;;;17.57;;
49488;SDS011;35382;51.484;11.476;2023-08-20T05:58:08;21.70;;;18.40;;
49488;SDS011;35382;51.484;11.476;2023-08-20T06:00:33;22.77;;;19.00;;
49488;SDS011;35382;51.484;11.476;2023-08-20T06:02:58;22.00;;;18.33;;
49488;SDS011;35382;51.484;11.476;2023-08-20T06:05:24;23.77;;;19.10;;
49488;SDS011;35382;51.484;11.476;2023-08-20T06:07:49;20.33;;;17.97;;
49488;SDS011;35382;51.484;11.476;2023-08-20T06:10:15;21.03;;;18.13;;
49488;SDS011;35382;51.484;11.476;2023-08-20T06:12:40;22.57;;;16.90;;
49488;SDS011;35382;51.484;11.476;2023-08-20T06:15:06;22.83;;;18.00;;
49488;SDS011;35382;51.484;11.476;2023-08-20T06:17:33;21.42;;;17.00;;
49488;SDS011;35382;51.484;11.476;2023-08-20T06:19:58;23.20;;;18.23;;
49488;SDS011;35382;51.484;11.476;2023-08-20T06:22:23;20.20;;;16.37;;
49488;SDS011;35382;51.484;11.476;2023-08-20T06:24:49;23.07;;;17.03;;
49488;SDS011;35382;51.484;11.476;2023-08-20T06:27:14;23.73;;;18.13;;
49488;SDS011;35382;51.484;11.476;2023-08-20T06:29:40;21.87;;;16.80;;
49488;SDS011;35382;51.484;11.476;2023-08-20T06:32:05;20.80;;;16.50;;
49488;SDS011;35382;51.484;11.476;2023-08-20T06:34:30;20.03;;;15.47;;
49488;SDS011;35382;51.484;11.476;2023-08-20T06:36:59;17.90;;;15.67;;
49488;SDS011;35382;51.484;11.476;2023-08-20T06:39:24;20.45;;;17.05;;
49488;SDS011;35382;51.484;11.476;2023-08-20T06:41:49;22.80;;;16.97;;
49488;SDS011;35382;51.484;11.476;2023-08-20T06:44:19;21.35;;;16.23;;
49488;SDS011;35382;51.484;11.476;2023-08-20T06:46:44;20.77;;;16.23;;
49488;SDS011;35382;51.484;11.476;2023-08-20T06:49:10;19.03;;;15.87;;
49488;SDS011;35382;51.484;11.476;2023-08-20T06:51:35;22.10;;;16.83;;
49488;SDS011;35382;51.484;11.476;2023-08-20T06:54:01;20.67;;;16.37;;
49488;SDS011;35382;51.484;11.476;2023-08-20T06:56:27;19.08;;;15.70;;
49488;SDS011;35382;51.484;11.476;2023-08-20T06:58:54;19.50;;;15.50;;
49488;SDS011;35382;51.484;11.476;2023-08-20T07:01:20;19.85;;;16.90;;
49488;SDS011;35382;51.484;11.476;2023-08-20T07:03:45;19.37;;;15.00;;
49488;SDS011;35382;51.484;11.476;2023-08-20T07:06:10;17.63;;;15.13;;
49488;SDS011;35382;51.484;11.476;2023-08-20T07:08:39;17.83;;;15.30;;
49488;SDS011;35382;51.484;11.476;2023-08-20T07:11:05;18.35;;;15.07;;
49488;SDS011;35382;51.484;11.476;2023-08-20T07:13:31;18.47;;;14.50;;
49488;SDS011;35382;51.484;11.476;2023-08-20T07:15:56;19.30;;;14.43;;
49488;SDS011;35382;51.484;11.476;2023-08-20T07:18:21;19.63;;;15.23;;
49488;SDS011;35382;51.484;11.476;2023-08-20T07:20:47;20.17;;;15.07;;
49488;SDS011;35382;51.484;11.476;2023-08-20T07:23:12;19.17;;;15.87;;
49488;SDS011;35382;51.484;11.476;2023-08-20T07:25:38;20.83;;;16.30;;
49488;SDS011;35382;51.484;11.476;2023-08-20T07:28:05;16.83;;;14.00;;
49488;SDS011;35382;51.484;11.476;2023-08-20T07:30:31;18.60;;;15.27;;
49488;SDS011;35382;51.484;11.476;2023-08-20T07:32:57;17.85;;;15.00;;
49488;SDS011;35382;51.484;11.476;2023-08-20T07:35:22;20.63;;;15.77;;
49488;SDS011;35382;51.484;11.476;2023-08-20T07:37:48;20.50;;;15.65;;
49488;SDS011;35382;51.484;11.476;2023-08-20T07:40:13;17.73;;;14.73;;
49488;SDS011;35382;51.484;11.476;2023-08-20T07:42:42;19.73;;;16.27;;
49488;SDS011;35382;51.484;11.476;2023-08-20T07:45:08;19.90;;;16.25;;
49488;SDS011;35382;51.484;11.476;2023-08-20T07:47:35;20.63;;;15.85;;
49488;SDS011;35382;51.484;11.476;2023-08-20T07:50:02;18.50;;;15.57;;
49488;SDS011;35382;51.484;11.476;2023-08-20T07:52:27;18.95;;;15.70;;
49488;SDS011;35382;51.484;11.476;2023-08-20T07:54:53;18.83;;;15.33;;
49488;SDS011;35382;51.484;11.476;2023-08-20T07:57:18;21.77;;;17.00;;
49488;SDS011;35382;51.484;11.476;2023-08-20T07:59:44;17.40;;;14.00;;
49488;SDS011;35382;51.484;11.476;2023-08-20T08:02:09;19.37;;;14.60;;
49488;SDS011;35382;51.484;11.476;2023-08-20T08:04:35;18.10;;;13.90;;
49488;SDS011;35382;51.484;11.476;2023-08-20T08:07:00;16.50;;;13.25;;
49488;SDS011;35382;51.484;11.476;2023-08-20T08:09:27;16.70;;;13.83;;
49488;SDS011;35382;51.484;11.476;2023-08-20T08:11:53;15.60;;;12.50;;
49488;SDS011;35382;51.484;11.476;2023-08-20T08:14:19;16.23;;;13.47;;
49488;SDS011;35382;51.484;11.476;2023-08-20T08:16:45;15.40;;;12.57;;
49488;SDS011;35382;51.484;11.476;2023-08-20T08:21:37;15.75;;;12.38;;
49488;SDS011;35382;51.484;11.476;2023-08-20T08:24:02;15.40;;;11.97;;
49488;SDS011;35382;51.484;11.476;2023-08-20T08:26:28;14.63;;;11.20;;
49488;SDS011;35382;51.484;11.476;2023-08-20T08:28:54;13.00;;;11.45;;
49488;SDS011;35382;51.484;11.476;2023-08-20T08:31:20;14.10;;;10.90;;
49488;SDS011;35382;51.484;11.476;2023-08-20T08:33:45;14.00;;;10.77;;
49488;SDS011;35382;51.484;11.476;2023-08-20T08:36:10;14.27;;;11.37;;
49488;SDS011;35382;51.484;11.476;2023-08-20T08:38:36;12.17;;;10.83;;
49488;SDS011;35382;51.484;11.476;2023-08-20T08:41:04;14.02;;;11.43;;
49488;SDS011;35382;51.484;11.476;2023-08-20T08:43:35;12.95;;;10.55;;
49488;SDS011;35382;51.484;11.476;2023-08-20T08:46:01;14.15;;;10.77;;
49488;SDS011;35382;51.484;11.476;2023-08-20T08:48:31;11.82;;;10.10;;
49488;SDS011;35382;51.484;11.476;2023-08-20T08:50:57;12.73;;;9.80;;
49488;SDS011;35382;51.484;11.476;2023-08-20T08:53:23;10.88;;;9.30;;
49488;SDS011;35382;51.484;11.476;2023-08-20T08:55:50;12.60;;;10.25;;
49488;SDS011;35382;51.484;11.476;2023-08-20T08:58:15;12.10;;;8.93;;
49488;SDS011;35382;51.484;11.476;2023-08-20T09:00:40;11.57;;;9.60;;
49488;SDS011;35382;51.484;11.476;2023-08-20T09:03:06;13.57;;;10.37;;
49488;SDS011;35382;51.484;11.476;2023-08-20T09:05:31;13.60;;;10.40;;
49488;SDS011;35382;51.484;11.476;2023-08-20T09:07:56;12.17;;;9.93;;
49488;SDS011;35382;51.484;11.476;2023-08-20T09:10:27;10.98;;;8.52;;
49488;SDS011;35382;51.484;11.476;2023-08-20T09:12:54;11.55;;;9.73;;
49488;SDS011;35382;51.484;11.476;2023-08-20T09:15:20;13.35;;;10.18;;
49488;SDS011;35382;51.484;11.476;2023-08-20T09:17:46;12.57;;;10.10;;
49488;SDS011;35382;51.484;11.476;2023-08-20T09:20:11;12.10;;;9.70;;
49488;SDS011;35382;51.484;11.476;2023-08-20T09:22:37;10.70;;;8.60;;
49488;SDS011;35382;51.484;11.476;2023-08-20T09:25:02;13.20;;;10.07;;
49488;SDS011;35382;51.484;11.476;2023-08-20T09:27:28;11.00;;;9.33;;
49488;SDS011;35382;51.484;11.476;2023-08-20T09:29:56;12.60;;;9.48;;
49488;SDS011;35382;51.484;11.476;2023-08-20T09:32:23;11.60;;;8.80;;
49488;SDS011;35382;51.484;11.476;2023-08-20T09:34:50;9.43;;;8.45;;
49488;SDS011;35382;51.484;11.476;2023-08-20T09:37:18;9.45;;;8.45;;
49488;SDS011;35382;51.484;11.476;2023-08-20T09:39:44;9.57;;;8.25;;
49488;SDS011;35382;51.484;11.476;2023-08-20T09:42:12;10.27;;;7.97;;
49488;SDS011;35382;51.484;11.476;2023-08-20T09:44:40;10.77;;;8.63;;
49488;SDS011;35382;51.484;11.476;2023-08-20T09:47:07;12.45;;;9.13;;
49488;SDS011;35382;51.484;11.476;2023-08-20T09:49:36;10.85;;;8.60;;
49488;SDS011;35382;51.484;11.476;2023-08-20T09:52:13;8.98;;;8.05;;
49488;SDS011;35382;51.484;11.476;2023-08-20T09:57:33;10.70;;;7.97;;
49488;SDS011;35382;51.484;11.476;2023-08-20T10:00:01;10.65;;;7.78;;
49488;SDS011;35382;51.484;11.476;2023-08-20T10:02:38;11.40;;;8.98;;
49488;SDS011;35382;51.484;11.476;2023-08-20T10:05:11;12.13;;;8.77;;
49488;SDS011;35382;51.484;11.476;2023-08-20T10:07:37;9.50;;;7.88;;
49488;SDS011;35382;51.484;11.476;2023-08-20T10:10:04;9.27;;;7.90;;
49488;SDS011;35382;51.484;11.476;2023-08-20T10:12:31;10.32;;;8.82;;
49488;SDS011;35382;51.484;11.476;2023-08-20T10:17:24;9.48;;;8.30;;
49488;SDS011;35382;51.484;11.476;2023-08-20T10:22:18;10.65;;;7.93;;
49488;SDS011;35382;51.484;11.476;2023-08-20T10:24:48;8.80;;;7.47;;
49488;SDS011;35382;51.484;11.476;2023-08-20T10:27:22;10.93;;;8.57;;
49488;SDS011;35382;51.484;11.476;2023-08-20T10:29:50;9.02;;;7.82;;
49488;SDS011;35382;51.484;11.476;2023-08-20T10:32:20;9.48;;;8.38;;
49488;SDS011;35382;51.484;11.476;2023-08-20T10:35:06;9.90;;;7.70;;
49488;SDS011;35382;51.484;11.476;2023-08-20T10:37:31;10.25;;;8.20;;
49488;SDS011;35382;51.484;11.476;2023-08-20T10:39:57;10.13;;;7.77;;
49488;SDS011;35382;51.484;11.476;2023-08-20T10:42:25;9.03;;;7.80;;
49488;SDS011;35382;51.484;11.476;2023-08-20T10:45:07;9.93;;;7.80;;
49488;SDS011;35382;51.484;11.476;2023-08-20T10:47:46;10.32;;;8.55;;
49488;SDS011;35382;51.484;11.476;2023-08-20T10:50:16;8.93;;;7.93;;
49488;SDS011;35382;51.484;11.476;2023-08-20T10:52:50;8.73;;;7.72;;
49488;SDS011;35382;51.484;11.476;2023-08-20T10:55:23;10.77;;;7.75;;
49488;SDS011;35382;51.484;11.476;2023-08-20T10:57:56;9.82;;;7.65;;
49488;SDS011;35382;51.484;11.476;2023-08-20T11:00:22;9.85;;;8.15;;
49488;SDS011;35382;51.484;11.476;2023-08-20T11:02:48;10.00;;;8.27;;
49488;SDS011;35382;51.484;11.476;2023-08-20T11:05:18;10.82;;;8.48;;
49488;SDS011;35382;51.484;11.476;2023-08-20T11:07:44;10.80;;;7.78;;
49488;SDS011;35382;51.484;11.476;2023-08-20T11:12:37;9.18;;;8.05;;
49488;SDS011;35382;51.484;11.476;2023-08-20T11:15:03;10.70;;;8.73;;
49488;SDS011;35382;51.484;11.476;2023-08-20T11:17:28;9.48;;;8.00;;
49488;SDS011;35382;51.484;11.476;2023-08-20T11:19:54;10.17;;;7.93;;
49488;SDS011;35382;51.484;11.476;2023-08-20T11:22:19;10.83;;;8.23;;
49488;SDS011;35382;51.484;11.476;2023-08-20T11:24:46;10.25;;;8.35;;
49488;SDS011;35382;51.484;11.476;2023-08-20T11:27:14;9.30;;;7.72;;
49488;SDS011;35382;51.484;11.476;2023-08-20T11:29:43;10.27;;;7.97;;
49488;SDS011;35382;51.484;11.476;2023-08-20T11:32:08;8.55;;;7.60;;
49488;SDS011;35382;51.484;11.476;2023-08-20T11:34:34;10.63;;;7.88;;
49488;SDS011;35382;51.484;11.476;2023-08-20T11:37:00;11.50;;;8.68;;
49488;SDS011;35382;51.484;11.476;2023-08-20T11:39:25;11.80;;;8.70;;
49488;SDS011;35382;51.484;11.476;2023-08-20T11:41:50;9.87;;;8.67;;
49488;SDS011;35382;51.484;11.476;2023-08-20T11:44:19;11.18;;;8.57;;
49488;SDS011;35382;51.484;11.476;2023-08-20T11:46:45;10.77;;;8.18;;
49488;SDS011;35382;51.484;11.476;2023-08-20T11:49:11;11.43;;;8.67;;
49488;SDS011;35382;51.484;11.476;2023-08-20T11:54:13;9.43;;;8.23;;
49488;SDS011;35382;51.484;11.476;2023-08-20T11:56:43;10.15;;;8.32;;
49488;SDS011;35382;51.484;11.476;2023-08-20T11:59:16;10.77;;;7.93;;
49488;SDS011;35382;51.484;11.476;2023-08-20T12:01:43;26.48;;;9.23;;
49488;SDS011;35382;51.484;11.476;2023-08-20T12:04:15;10.90;;;7.63;;
49488;SDS011;35382;51.484;11.476;2023-08-20T12:06:41;10.80;;;8.87;;
49488;SDS011;35382;51.484;11.476;2023-08-20T12:09:22;10.87;;;8.73;;
49488;SDS011;35382;51.484;11.476;2023-08-20T12:11:48;9.40;;;7.93;;
49488;SDS011;35382;51.484;11.476;2023-08-20T12:14:14;10.23;;;8.52;;
49488;SDS011;35382;51.484;11.476;2023-08-20T12:16:40;9.67;;;8.07;;
49488;SDS011;35382;51.484;11.476;2023-08-20T12:19:05;9.80;;;8.47;;
49488;SDS011;35382;51.484;11.476;2023-08-20T12:21:30;13.30;;;9.02;;
49488;SDS011;35382;51.484;11.476;2023-08-20T12:23:56;9.83;;;8.17;;
49488;SDS011;35382;51.484;11.476;2023-08-20T12:26:21;10.27;;;8.90;;
49488;SDS011;35382;51.484;11.476;2023-08-20T12:28:47;14.33;;;9.00;;
49488;SDS011;35382;51.484;11.476;2023-08-20T12:31:12;11.27;;;8.50;;
49488;SDS011;35382;51.484;11.476;2023-08-20T12:33:37;10.07;;;8.27;;
49488;SDS011;35382;51.484;11.476;2023-08-20T12:36:03;10.63;;;8.70;;
49488;SDS011;35382;51.484;11.476;2023-08-20T12:38:29;11.55;;;8.20;;
49488;SDS011;35382;51.484;11.476;2023-08-20T12:40:54;10.93;;;8.73;;
49488;SDS011;35382;51.484;11.476;2023-08-20T12:43:19;16.80;;;9.33;;
49488;SDS011;35382;51.484;11.476;2023-08-20T12:45:45;14.00;;;9.43;;
49488;SDS011;35382;51.484;11.476;2023-08-20T12:48:10;11.43;;;8.87;;
49488;SDS011;35382;51.484;11.476;2023-08-20T12:50:35;13.80;;;9.13;;
49488;SDS011;35382;51.484;11.476;2023-08-20T12:53:01;134.37;;;21.43;;
49488;SDS011;35382;51.484;11.476;2023-08-20T12:55:26;220.93;;;25.87;;
49488;SDS011;35382;51.484;11.476;2023-08-20T12:57:56;75.50;;;14.53;;
49488;SDS011;35382;51.484;11.476;2023-08-20T13:00:23;38.55;;;10.98;;
49488;SDS011;35382;51.484;11.476;2023-08-20T13:02:49;10.52;;;8.60;;
49488;SDS011;35382;51.484;11.476;2023-08-20T13:05:15;22.75;;;9.77;;
49488;SDS011;35382;51.484;11.476;2023-08-20T13:07:41;233.20;;;28.92;;
49488;SDS011;35382;51.484;11.476;2023-08-20T13:10:08;12.00;;;9.13;;
49488;SDS011;35382;51.484;11.476;2023-08-20T13:12:34;10.27;;;8.65;;
49488;SDS011;35382;51.484;11.476;2023-08-20T13:15:00;16.10;;;10.20;;
49488;SDS011;35382;51.484;11.476;2023-08-20T13:17:26;16.77;;;9.77;;
49488;SDS011;35382;51.484;11.476;2023-08-20T13:19:51;105.32;;;17.80;;
49488;SDS011;35382;51.484;11.476;2023-08-20T13:22:17;52.00;;;12.40;;
49488;SDS011;35382;51.484;11.476;2023-08-20T13:24:43;61.87;;;13.60;;
49488;SDS011;35382;51.484;11.476;2023-08-20T13:27:08;109.80;;;17.27;;
49488;SDS011;35382;51.484;11.476;2023-08-20T13:29:34;56.67;;;13.87;;
49488;SDS011;35382;51.484;11.476;2023-08-20T13:31:59;13.80;;;9.00;;
49488;SDS011;35382;51.484;11.476;2023-08-20T13:34:25;11.13;;;8.53;;
49488;SDS011;35382;51.484;11.476;2023-08-20T13:36:50;22.23;;;9.77;;
49488;SDS011;35382;51.484;11.476;2023-08-20T13:39:15;11.00;;;8.90;;
49488;SDS011;35382;51.484;11.476;2023-08-20T13:41:41;12.70;;;9.40;;
49488;SDS011;35382;51.484;11.476;2023-08-20T13:44:07;10.33;;;9.30;;
49488;SDS011;35382;51.484;11.476;2023-08-20T13:46:32;12.70;;;9.90;;
49488;SDS011;35382;51.484;11.476;2023-08-20T13:48:58;15.90;;;9.30;;
49488;SDS011;35382;51.484;11.476;2023-08-20T13:51:23;14.20;;;9.53;;
49488;SDS011;35382;51.484;11.476;2023-08-20T13:53:48;10.03;;;8.70;;
49488;SDS011;35382;51.484;11.476;2023-08-20T13:56:14;24.80;;;9.80;;
49488;SDS011;35382;51.484;11.476;2023-08-20T13:58:39;11.07;;;9.07;;
49488;SDS011;35382;51.484;11.476;2023-08-20T14:01:04;11.13;;;9.20;;
49488;SDS011;35382;51.484;11.476;2023-08-20T14:03:30;14.23;;;9.20;;
49488;SDS011;35382;51.484;11.476;2023-08-20T14:05:56;12.67;;;9.33;;
49488;SDS011;35382;51.484;11.476;2023-08-20T14:08:21;10.43;;;9.07;;
49488;SDS011;35382;51.484;11.476;2023-08-20T14:10:47;14.95;;;9.60;;
49488;SDS011;35382;51.484;11.476;2023-08-20T14:13:13;10.85;;;9.70;;
49488;SDS011;35382;51.484;11.476;2023-08-20T14:15:38;11.27;;;8.80;;
49488;SDS011;35382;51.484;11.476;2023-08-20T14:18:04;17.03;;;9.90;;
49488;SDS011;35382;51.484;11.476;2023-08-20T14:20:30;17.50;;;10.48;;
49488;SDS011;35382;51.484;11.476;2023-08-20T14:22:55;11.53;;;9.43;;
49488;SDS011;35382;51.484;11.476;2023-08-20T14:25:21;12.07;;;10.00;;
49488;SDS011;35382;51.484;11.476;2023-08-20T14:27:46;10.40;;;8.63;;
49488;SDS011;35382;51.484;11.476;2023-08-20T14:30:12;10.70;;;9.20;;
49488;SDS011;35382;51.484;11.476;2023-08-20T14:32:37;11.37;;;8.90;;
49488;SDS011;35382;51.484;11.476;2023-08-20T14:35:03;11.77;;;8.97;;